PWSweather.com
Personal Weather Stations
Station Observations
CANDIOTINO
Barrio Candioti Norte, Santa FeAR 3000

Barrio Candioti NorteSanta FeAR 3000

Lat: -31.632778, Lon: -60.695556

Elevation: 69

Station Type: WH-1081

http://www.eltiempoensantafe.com.ar

High Low Average
Temperature 68.2°F20.1°C 52.0°F11.1°C 60.5°F15.8°C
Dew Point 64.0°F17.8°C 46.9°F8.3°C 57.5°F14.2°C
Winds 21.3 mph 34.3 kmh 0.7 mph 1.1 kmh 8.0 mph SSE12.9 kmh SSE
Wind Gusts 34.2 mph55.0 kmh 3.8 mph6.1 kmh 16.0 mph25.7 kmh
Humidity 95% 79% 90%
Pressure 29.94 in1013.9 mb 29.59 in1002.0 mb -
Precipitation 0.02 in0.5 mm - -
Hour Temp Dew Point Humidity Winds Wind Gusts Pressure Precip Precip Rate Daily Precip Total
12:00 AM 68.2°F20.1°C 63.2°F17.3°C 84% 2.2 mph SE3.5 kmh SE 7.6 mph12.2 kmh 29.59 in1002.0 mb 0.00 in0.0 mm 0.00 in0.0 mm 0.00 in0.0 mm
12:15 AM 68.0°F20.0°C 63.3°F17.4°C 85% 3.8 mph ESE6.1 kmh ESE 7.6 mph12.2 kmh 29.59 in1002.0 mb 0.00 in0.0 mm 0.00 in0.0 mm 0.00 in0.0 mm
12:30 AM 67.6°F19.8°C 63.3°F17.4°C 86% 3.8 mph SE6.1 kmh SE 6.9 mph11.1 kmh 29.60 in1002.4 mb 0.00 in0.0 mm 0.00 in0.0 mm 0.00 in0.0 mm
12:45 AM 67.3°F19.6°C 63.3°F17.4°C 87% 3.1 mph SE5.0 kmh SE 9.8 mph15.8 kmh 29.60 in1002.4 mb 0.00 in0.0 mm 0.00 in0.0 mm 0.00 in0.0 mm
01:00 AM 67.1°F19.5°C 63.1°F17.3°C 87% 3.1 mph ESE5.0 kmh ESE 6.0 mph9.7 kmh 29.60 in1002.4 mb 0.00 in0.0 mm 0.00 in0.0 mm 0.00 in0.0 mm
01:15 AM 66.7°F19.3°C 62.8°F17.1°C 87% 1.6 mph ESE2.6 kmh ESE 6.0 mph9.7 kmh 29.60 in1002.4 mb 0.00 in0.0 mm 0.00 in0.0 mm 0.00 in0.0 mm
01:30 AM 66.6°F19.2°C 62.9°F17.2°C 88% 1.6 mph SE2.6 kmh SE 6.0 mph9.7 kmh 29.60 in1002.4 mb 0.00 in0.0 mm 0.00 in0.0 mm 0.00 in0.0 mm
01:45 AM 66.2°F19.0°C 62.6°F17.0°C 88% 3.8 mph SE6.1 kmh SE 6.9 mph11.1 kmh 29.60 in1002.4 mb 0.00 in0.0 mm 0.00 in0.0 mm 0.00 in0.0 mm
02:00 AM 66.0°F18.9°C 62.7°F17.1°C 89% 3.8 mph SE6.1 kmh SE 7.6 mph12.2 kmh 29.60 in1002.4 mb 0.00 in0.0 mm 0.00 in0.0 mm 0.00 in0.0 mm
02:15 AM 65.8°F18.8°C 62.5°F16.9°C 89% 3.1 mph SSE5.0 kmh SSE 6.9 mph11.1 kmh 29.61 in1002.7 mb 0.00 in0.0 mm 0.00 in0.0 mm 0.00 in0.0 mm
02:30 AM 65.7°F18.7°C 62.7°F17.1°C 90% 4.5 mph SSE7.2 kmh SSE 6.9 mph11.1 kmh 29.62 in1003.0 mb 0.00 in0.0 mm 0.00 in0.0 mm 0.00 in0.0 mm
02:45 AM 65.7°F18.7°C 62.7°F17.1°C 90% 3.8 mph S6.1 kmh S 6.9 mph11.1 kmh 29.62 in1003.0 mb 0.00 in0.0 mm 0.00 in0.0 mm 0.00 in0.0 mm
03:00 AM 64.9°F18.3°C 62.0°F16.7°C 90% 7.6 mph SSW12.2 kmh SSW 10.7 mph17.2 kmh 29.62 in1003.0 mb 0.00 in0.0 mm 0.00 in0.0 mm 0.00 in0.0 mm
03:15 AM 64.0°F17.8°C 61.1°F16.2°C 90% 3.1 mph S5.0 kmh S 8.3 mph13.4 kmh 29.62 in1003.0 mb 0.00 in0.0 mm 0.00 in0.0 mm 0.00 in0.0 mm
03:30 AM 64.2°F17.9°C 61.6°F16.4°C 91% 5.4 mph SSE8.7 kmh SSE 9.2 mph14.8 kmh 29.62 in1003.0 mb 0.00 in0.0 mm 0.00 in0.0 mm 0.00 in0.0 mm
03:45 AM 64.2°F17.9°C 61.6°F16.4°C 91% 4.5 mph S7.2 kmh S 9.8 mph15.8 kmh 29.62 in1003.0 mb 0.00 in0.0 mm 0.00 in0.0 mm 0.00 in0.0 mm
04:00 AM 64.0°F17.8°C 61.4°F16.3°C 91% 5.4 mph S8.7 kmh S 10.7 mph17.2 kmh 29.61 in1002.7 mb 0.00 in0.0 mm 0.00 in0.0 mm 0.00 in0.0 mm
04:15 AM 63.9°F17.7°C 61.2°F16.2°C 91% 5.4 mph S8.7 kmh S 9.2 mph14.8 kmh 29.61 in1002.7 mb 0.00 in0.0 mm 0.00 in0.0 mm 0.00 in0.0 mm
04:30 AM 63.7°F17.6°C 61.3°F16.3°C 92% 4.5 mph S7.2 kmh S 9.2 mph14.8 kmh 29.62 in1003.0 mb 0.00 in0.0 mm 0.00 in0.0 mm 0.00 in0.0 mm
04:45 AM 63.7°F17.6°C 61.3°F16.3°C 92% 7.6 mph S12.2 kmh S 10.7 mph17.2 kmh 29.62 in1003.0 mb 0.00 in0.0 mm 0.00 in0.0 mm 0.00 in0.0 mm
05:00 AM 63.7°F17.6°C 61.3°F16.3°C 92% 4.5 mph SSE7.2 kmh SSE 9.8 mph15.8 kmh 29.62 in1003.0 mb 0.00 in0.0 mm 0.00 in0.0 mm 0.00 in0.0 mm
05:15 AM 63.7°F17.6°C 61.3°F16.3°C 92% 6.0 mph SSE9.7 kmh SSE 12.1 mph19.5 kmh 29.63 in1003.4 mb 0.00 in0.0 mm 0.00 in0.0 mm 0.00 in0.0 mm
05:30 AM 63.7°F17.6°C 61.3°F16.3°C 92% 5.4 mph SSE8.7 kmh SSE 10.7 mph17.2 kmh 29.62 in1003.0 mb 0.00 in0.0 mm 0.00 in0.0 mm 0.00 in0.0 mm
05:45 AM 63.7°F17.6°C 61.3°F16.3°C 92% 7.6 mph SE12.2 kmh SE 13.0 mph20.9 kmh 29.63 in1003.4 mb 0.00 in0.0 mm 0.00 in0.0 mm 0.00 in0.0 mm
06:00 AM 63.5°F17.5°C 61.2°F16.2°C 92% 8.3 mph SE13.4 kmh SE 11.4 mph18.3 kmh 29.63 in1003.4 mb 0.00 in0.0 mm 0.00 in0.0 mm 0.00 in0.0 mm
06:15 AM 63.5°F17.5°C 61.2°F16.2°C 92% 4.5 mph SE7.2 kmh SE 11.4 mph18.3 kmh 29.63 in1003.4 mb 0.00 in0.0 mm 0.00 in0.0 mm 0.00 in0.0 mm
06:30 AM 63.5°F17.5°C 61.2°F16.2°C 92% 4.5 mph SSE7.2 kmh SSE 13.6 mph21.9 kmh 29.64 in1003.7 mb 0.00 in0.0 mm 0.00 in0.0 mm 0.00 in0.0 mm
06:45 AM 63.7°F17.6°C 61.3°F16.3°C 92% 3.8 mph SSE6.1 kmh SSE 9.8 mph15.8 kmh 29.64 in1003.7 mb 0.00 in0.0 mm 0.00 in0.0 mm 0.00 in0.0 mm
07:00 AM 63.7°F17.6°C 61.3°F16.3°C 92% 5.4 mph SSE8.7 kmh SSE 11.4 mph18.3 kmh 29.64 in1003.7 mb 0.00 in0.0 mm 0.00 in0.0 mm 0.00 in0.0 mm
07:15 AM 63.7°F17.6°C 61.3°F16.3°C 92% 5.4 mph SSE8.7 kmh SSE 9.2 mph14.8 kmh 29.65 in1004.1 mb 0.00 in0.0 mm 0.00 in0.0 mm 0.00 in0.0 mm
07:30 AM 63.7°F17.6°C 61.3°F16.3°C 92% 4.5 mph SE7.2 kmh SE 10.7 mph17.2 kmh 29.66 in1004.4 mb 0.00 in0.0 mm 0.00 in0.0 mm 0.00 in0.0 mm
07:45 AM 63.7°F17.6°C 61.3°F16.3°C 92% 6.0 mph S9.7 kmh S 9.2 mph14.8 kmh 29.67 in1004.7 mb 0.00 in0.0 mm 0.00 in0.0 mm 0.00 in0.0 mm
08:00 AM 63.7°F17.6°C 61.3°F16.3°C 92% 5.4 mph SSE8.7 kmh SSE 9.2 mph14.8 kmh 29.68 in1005.1 mb 0.00 in0.0 mm 0.00 in0.0 mm 0.00 in0.0 mm
08:15 AM 63.7°F17.6°C 61.3°F16.3°C 92% 4.5 mph SSE7.2 kmh SSE 9.2 mph14.8 kmh 29.67 in1004.7 mb 0.00 in0.0 mm 0.00 in0.0 mm 0.00 in0.0 mm
08:30 AM 63.7°F17.6°C 61.6°F16.4°C 93% 3.8 mph SE6.1 kmh SE 7.6 mph12.2 kmh 29.67 in1004.7 mb 0.00 in0.0 mm 0.00 in0.0 mm 0.00 in0.0 mm
08:45 AM 63.5°F17.5°C 61.5°F16.4°C 93% 3.8 mph SSE6.1 kmh SSE 8.3 mph13.4 kmh 29.68 in1005.1 mb 0.00 in0.0 mm 0.00 in0.0 mm 0.00 in0.0 mm
09:00 AM 63.7°F17.6°C 61.6°F16.4°C 93% 5.4 mph S8.7 kmh S 9.8 mph15.8 kmh 29.68 in1005.1 mb 0.00 in0.0 mm 0.00 in0.0 mm 0.00 in0.0 mm
09:15 AM 63.7°F17.6°C 61.6°F16.4°C 93% 1.6 mph S2.6 kmh S 10.7 mph17.2 kmh 29.70 in1005.8 mb 0.00 in0.0 mm 0.00 in0.0 mm 0.00 in0.0 mm
09:30 AM 63.9°F17.7°C 62.1°F16.7°C 94% 3.8 mph S6.1 kmh S 7.6 mph12.2 kmh 29.70 in1005.8 mb 0.00 in0.0 mm 0.00 in0.0 mm 0.00 in0.0 mm
09:45 AM 63.9°F17.7°C 62.1°F16.7°C 94% 5.4 mph S8.7 kmh S 9.8 mph15.8 kmh 29.68 in1005.1 mb 0.00 in0.0 mm 0.00 in0.0 mm 0.00 in0.0 mm
10:00 AM 63.9°F17.7°C 62.1°F16.7°C 94% 3.1 mph S5.0 kmh S 8.3 mph13.4 kmh 29.72 in1006.4 mb 0.00 in0.0 mm 0.00 in0.0 mm 0.00 in0.0 mm
10:15 AM 64.0°F17.8°C 62.3°F16.8°C 94% 5.4 mph S8.7 kmh S 9.2 mph14.8 kmh 29.72 in1006.4 mb 0.00 in0.0 mm 0.00 in0.0 mm 0.00 in0.0 mm
10:30 AM 64.2°F17.9°C 62.5°F16.9°C 94% 0.7 mph WSW1.1 kmh WSW 3.8 mph6.1 kmh 29.75 in1007.5 mb 0.00 in0.0 mm 0.00 in0.0 mm 0.00 in0.0 mm
10:45 AM 64.2°F17.9°C 62.5°F16.9°C 94% 1.6 mph S2.6 kmh S 6.0 mph9.7 kmh 29.72 in1006.4 mb 0.00 in0.0 mm 0.00 in0.0 mm 0.00 in0.0 mm
11:00 AM 64.2°F17.9°C 62.2°F16.8°C 93% 5.4 mph SSE8.7 kmh SSE 9.8 mph15.8 kmh 29.69 in1005.4 mb 0.01 in0.3 mm 0.01 in0.3 mm 0.01 in0.3 mm
11:15 AM 64.6°F18.1°C 63.1°F17.3°C 95% 9.2 mph S14.8 kmh S 17.4 mph28.0 kmh 29.68 in1005.1 mb 0.01 in0.3 mm 0.00 in0.0 mm 0.01 in0.3 mm
11:30 AM 64.6°F18.1°C 63.1°F17.3°C 95% 6.9 mph S11.1 kmh S 15.9 mph25.6 kmh 29.69 in1005.4 mb 0.01 in0.3 mm 0.00 in0.0 mm 0.01 in0.3 mm
11:45 AM 65.1°F18.4°C 63.7°F17.6°C 95% 7.6 mph S12.2 kmh S 14.5 mph23.3 kmh 29.70 in1005.8 mb 0.01 in0.3 mm 0.00 in0.0 mm 0.01 in0.3 mm
12:00 PM 66.0°F18.9°C 64.0°F17.8°C 93% 7.6 mph S12.2 kmh S 14.5 mph23.3 kmh 29.69 in1005.4 mb 0.00 in0.0 mm 0.00 in0.0 mm 0.01 in0.3 mm
12:15 PM 66.7°F19.3°C 63.4°F17.4°C 89% 6.9 mph S11.1 kmh S 13.6 mph21.9 kmh 29.69 in1005.4 mb 0.00 in0.0 mm 0.00 in0.0 mm 0.01 in0.3 mm
12:30 PM 65.7°F18.7°C 62.4°F16.9°C 89% 6.9 mph S11.1 kmh S 18.3 mph29.5 kmh 29.71 in1006.1 mb 0.00 in0.0 mm 0.00 in0.0 mm 0.01 in0.3 mm
12:45 PM 63.5°F17.5°C 59.9°F15.5°C 88% 3.8 mph S6.1 kmh S 14.5 mph23.3 kmh 29.70 in1005.8 mb 0.00 in0.0 mm 0.00 in0.0 mm 0.01 in0.3 mm
01:00 PM 63.1°F17.3°C 59.9°F15.5°C 89% 6.9 mph S11.1 kmh S 13.0 mph20.9 kmh 29.70 in1005.8 mb 0.00 in0.0 mm 0.00 in0.0 mm 0.01 in0.3 mm
01:15 PM 62.4°F16.9°C 60.1°F15.6°C 92% 9.8 mph S15.8 kmh S 15.9 mph25.6 kmh 29.70 in1005.8 mb 0.00 in0.0 mm 0.00 in0.0 mm 0.01 in0.3 mm
01:30 PM 61.9°F16.6°C 59.5°F15.3°C 92% 5.4 mph S8.7 kmh S 16.8 mph27.0 kmh 29.71 in1006.1 mb 0.00 in0.0 mm 0.00 in0.0 mm 0.01 in0.3 mm
01:45 PM 61.0°F16.1°C 58.7°F14.8°C 92% 8.3 mph S13.4 kmh S 15.2 mph24.5 kmh 29.71 in1006.1 mb 0.00 in0.0 mm 0.00 in0.0 mm 0.01 in0.3 mm
02:00 PM 60.4°F15.8°C 58.7°F14.8°C 94% 6.0 mph S9.7 kmh S 19.0 mph30.6 kmh 29.70 in1005.8 mb 0.00 in0.0 mm 0.00 in0.0 mm 0.01 in0.3 mm
02:15 PM 60.1°F15.6°C 58.4°F14.7°C 94% 10.7 mph S17.2 kmh S 15.9 mph25.6 kmh 29.70 in1005.8 mb 0.00 in0.0 mm 0.00 in0.0 mm 0.01 in0.3 mm
02:30 PM 59.7°F15.4°C 58.0°F14.4°C 94% 12.1 mph SSW19.5 kmh SSW 20.6 mph33.2 kmh 29.72 in1006.4 mb 0.00 in0.0 mm 0.00 in0.0 mm 0.01 in0.3 mm
02:45 PM 59.5°F15.3°C 57.8°F14.3°C 94% 9.2 mph SSE14.8 kmh SSE 18.3 mph29.5 kmh 29.72 in1006.4 mb 0.00 in0.0 mm 0.00 in0.0 mm 0.01 in0.3 mm
03:00 PM 59.0°F15.0°C 57.3°F14.1°C 94% 6.9 mph S11.1 kmh S 15.2 mph24.5 kmh 29.70 in1005.8 mb 0.00 in0.0 mm 0.00 in0.0 mm 0.01 in0.3 mm
03:15 PM 58.6°F14.8°C 57.2°F14.0°C 95% 12.1 mph S19.5 kmh S 19.7 mph31.7 kmh 29.71 in1006.1 mb 0.00 in0.0 mm 0.00 in0.0 mm 0.01 in0.3 mm
03:30 PM 58.5°F14.7°C 57.0°F13.9°C 95% 8.3 mph S13.4 kmh S 18.3 mph29.5 kmh 29.71 in1006.1 mb 0.00 in0.0 mm 0.00 in0.0 mm 0.01 in0.3 mm
03:45 PM 58.1°F14.5°C 56.7°F13.7°C 95% 6.9 mph SSW11.1 kmh SSW 19.7 mph31.7 kmh 29.73 in1006.8 mb 0.00 in0.0 mm 0.00 in0.0 mm 0.01 in0.3 mm
04:00 PM 57.6°F14.2°C 56.1°F13.4°C 95% 8.3 mph S13.4 kmh S 20.6 mph33.2 kmh 29.73 in1006.8 mb 0.00 in0.0 mm 0.00 in0.0 mm 0.01 in0.3 mm
04:15 PM 57.4°F14.1°C 55.7°F13.2°C 94% 10.7 mph S17.2 kmh S 19.0 mph30.6 kmh 29.73 in1006.8 mb 0.00 in0.0 mm 0.00 in0.0 mm 0.01 in0.3 mm
04:30 PM 57.2°F14.0°C 55.5°F13.1°C 94% 12.1 mph S19.5 kmh S 22.1 mph35.6 kmh 29.75 in1007.5 mb 0.00 in0.0 mm 0.00 in0.0 mm 0.01 in0.3 mm
04:45 PM 57.0°F13.9°C 55.6°F13.1°C 95% 12.1 mph S19.5 kmh S 19.7 mph31.7 kmh 29.76 in1007.8 mb 0.00 in0.0 mm 0.00 in0.0 mm 0.01 in0.3 mm
05:00 PM 56.8°F13.8°C 55.4°F13.0°C 95% 11.4 mph SSE18.3 kmh SSE 21.3 mph34.3 kmh 29.77 in1008.1 mb 0.00 in0.0 mm 0.00 in0.0 mm 0.01 in0.3 mm
05:15 PM 56.5°F13.6°C 54.8°F12.7°C 94% 10.7 mph SSE17.2 kmh SSE 20.6 mph33.2 kmh 29.76 in1007.8 mb 0.00 in0.0 mm 0.00 in0.0 mm 0.01 in0.3 mm
05:30 PM 56.1°F13.4°C 54.4°F12.4°C 94% 15.9 mph SSE25.6 kmh SSE 25.1 mph40.4 kmh 29.76 in1007.8 mb 0.00 in0.0 mm 0.00 in0.0 mm 0.01 in0.3 mm
05:31 PM 56.1°F13.4°C 54.4°F12.4°C 94% 15.9 mph SSE25.6 kmh SSE 23.5 mph37.8 kmh 29.77 in1008.1 mb 0.00 in0.0 mm 0.00 in0.0 mm 0.01 in0.3 mm
05:36 PM 55.8°F13.2°C 54.1°F12.3°C 94% 13.6 mph SSE21.9 kmh SSE 23.5 mph37.8 kmh 29.76 in1007.8 mb 0.00 in0.0 mm 0.00 in0.0 mm 0.01 in0.3 mm
05:41 PM 55.9°F13.3°C 53.9°F12.2°C 93% 13.6 mph SE21.9 kmh SE 21.3 mph34.3 kmh 29.76 in1007.8 mb 0.00 in0.0 mm 0.00 in0.0 mm 0.01 in0.3 mm
05:46 PM 55.9°F13.3°C 53.6°F12.0°C 92% 17.4 mph E28.0 kmh E 25.1 mph40.4 kmh 29.76 in1007.8 mb 0.01 in0.3 mm 0.12 in3.0 mm 0.02 in0.5 mm
05:51 PM 56.1°F13.4°C 53.8°F12.1°C 92% 13.6 mph ESE21.9 kmh ESE 25.1 mph40.4 kmh 29.76 in1007.8 mb 0.01 in0.3 mm 0.00 in0.0 mm 0.02 in0.5 mm
06:00 PM 55.2°F12.9°C 52.6°F11.4°C 91% 9.2 mph S14.8 kmh S 22.1 mph35.6 kmh 29.77 in1008.1 mb 0.01 in0.3 mm 0.00 in0.0 mm 0.02 in0.5 mm
06:15 PM 54.5°F12.5°C 51.9°F11.1°C 91% 9.2 mph SSE14.8 kmh SSE 24.4 mph39.3 kmh 29.78 in1008.5 mb 0.01 in0.3 mm 0.00 in0.0 mm 0.02 in0.5 mm
06:30 PM 54.1°F12.3°C 51.6°F10.9°C 91% 15.2 mph S24.5 kmh S 22.8 mph36.7 kmh 29.78 in1008.5 mb 0.01 in0.3 mm 0.00 in0.0 mm 0.02 in0.5 mm
06:45 PM 54.3°F12.4°C 51.8°F11.0°C 91% 15.2 mph SSE24.5 kmh SSE 28.9 mph46.5 kmh 29.79 in1008.8 mb 0.00 in0.0 mm 0.00 in0.0 mm 0.02 in0.5 mm
07:00 PM 54.5°F12.5°C 51.0°F10.6°C 88% 15.9 mph SE25.6 kmh SE 25.9 mph41.7 kmh 29.81 in1009.5 mb 0.00 in0.0 mm 0.00 in0.0 mm 0.02 in0.5 mm
07:15 PM 54.5°F12.5°C 50.4°F10.2°C 86% 10.7 mph S17.2 kmh S 30.4 mph48.9 kmh 29.83 in1010.2 mb 0.00 in0.0 mm 0.00 in0.0 mm 0.02 in0.5 mm
07:30 PM 54.1°F12.3°C 50.4°F10.2°C 87% 11.4 mph SSE18.3 kmh SSE 27.3 mph43.9 kmh 29.83 in1010.2 mb 0.00 in0.0 mm 0.00 in0.0 mm 0.02 in0.5 mm
07:45 PM 54.3°F12.4°C 50.2°F10.1°C 86% 20.6 mph SSE33.2 kmh SSE 28.9 mph46.5 kmh 29.84 in1010.5 mb 0.00 in0.0 mm 0.00 in0.0 mm 0.02 in0.5 mm
08:00 PM 54.3°F12.4°C 49.6°F9.8°C 84% 15.9 mph SE25.6 kmh SE 29.8 mph48.0 kmh 29.84 in1010.5 mb 0.00 in0.0 mm 0.00 in0.0 mm 0.02 in0.5 mm
08:15 PM 54.1°F12.3°C 49.4°F9.7°C 84% 14.5 mph SE23.3 kmh SE 23.5 mph37.8 kmh 29.84 in1010.5 mb 0.00 in0.0 mm 0.00 in0.0 mm 0.02 in0.5 mm
08:30 PM 53.8°F12.1°C 49.1°F9.5°C 84% 9.2 mph SSE14.8 kmh SSE 29.8 mph48.0 kmh 29.84 in1010.5 mb 0.00 in0.0 mm 0.00 in0.0 mm 0.02 in0.5 mm
08:45 PM 53.4°F11.9°C 48.1°F8.9°C 82% 21.3 mph SE34.3 kmh SE 32.0 mph51.5 kmh 29.85 in1010.8 mb 0.00 in0.0 mm 0.00 in0.0 mm 0.02 in0.5 mm
09:00 PM 53.2°F11.8°C 47.6°F8.7°C 81% 15.2 mph SE24.5 kmh SE 28.2 mph45.4 kmh 29.86 in1011.2 mb 0.00 in0.0 mm 0.00 in0.0 mm 0.02 in0.5 mm
09:15 PM 53.1°F11.7°C 47.4°F8.6°C 81% 13.6 mph SE21.9 kmh SE 25.1 mph40.4 kmh 29.86 in1011.2 mb 0.00 in0.0 mm 0.00 in0.0 mm 0.02 in0.5 mm
09:30 PM 52.7°F11.5°C 47.0°F8.3°C 81% 13.6 mph SSE21.9 kmh SSE 28.9 mph46.5 kmh 29.84 in1010.5 mb 0.00 in0.0 mm 0.00 in0.0 mm 0.02 in0.5 mm
09:45 PM 52.5°F11.4°C 46.9°F8.3°C 81% 14.5 mph SE23.3 kmh SE 34.2 mph55.0 kmh 29.86 in1011.2 mb 0.00 in0.0 mm 0.00 in0.0 mm 0.02 in0.5 mm
10:00 PM 52.9°F11.6°C 47.2°F8.4°C 81% 14.5 mph ESE23.3 kmh ESE 21.3 mph34.3 kmh 29.88 in1011.9 mb 0.00 in0.0 mm 0.00 in0.0 mm 0.02 in0.5 mm
10:15 PM 53.1°F11.7°C 47.1°F8.4°C 80% 14.5 mph SE23.3 kmh SE 20.6 mph33.2 kmh 29.90 in1012.5 mb 0.00 in0.0 mm 0.00 in0.0 mm 0.02 in0.5 mm
10:30 PM 53.2°F11.8°C 46.9°F8.3°C 79% 9.8 mph SE15.8 kmh SE 22.1 mph35.6 kmh 29.92 in1013.2 mb 0.00 in0.0 mm 0.00 in0.0 mm 0.02 in0.5 mm
10:45 PM 53.1°F11.7°C 47.1°F8.4°C 80% 9.2 mph SSE14.8 kmh SSE 22.1 mph35.6 kmh 29.93 in1013.5 mb 0.00 in0.0 mm 0.00 in0.0 mm 0.02 in0.5 mm
11:00 PM 53.1°F11.7°C 47.4°F8.6°C 81% 10.7 mph SSE17.2 kmh SSE 19.7 mph31.7 kmh 29.94 in1013.9 mb 0.00 in0.0 mm 0.00 in0.0 mm 0.02 in0.5 mm
11:15 PM 52.9°F11.6°C 47.2°F8.4°C 81% 9.2 mph SE14.8 kmh SE 19.0 mph30.6 kmh 29.94 in1013.9 mb 0.00 in0.0 mm 0.00 in0.0 mm 0.02 in0.5 mm
11:30 PM 52.5°F11.4°C 47.2°F8.4°C 82% 6.9 mph SE11.1 kmh SE 22.8 mph36.7 kmh 29.93 in1013.5 mb 0.00 in0.0 mm 0.00 in0.0 mm 0.02 in0.5 mm
11:45 PM 52.0°F11.1°C 47.0°F8.3°C 83% 9.8 mph SE15.8 kmh SE 19.7 mph31.7 kmh 29.92 in1013.2 mb 0.00 in0.0 mm 0.00 in0.0 mm 0.02 in0.5 mm